createdAt,value
2023-04-17T00:00:36.400Z,3.23
2023-04-17T00:03:04.150Z,3.21
2023-04-17T00:05:32.201Z,3.15
2023-04-17T00:08:00.352Z,3.27
2023-04-17T00:10:27.830Z,3.33
2023-04-17T00:12:55.144Z,3.43
2023-04-17T00:15:22.539Z,3.53
2023-04-17T00:17:49.923Z,3.44
2023-04-17T00:20:17.243Z,3.51
2023-04-17T00:22:44.546Z,3.55
2023-04-17T00:25:15.083Z,3.66
2023-04-17T00:27:43.093Z,3.65
2023-04-17T00:30:10.951Z,3.67
2023-04-17T00:32:38.338Z,3.72
2023-04-17T00:35:06.212Z,3.83
2023-04-17T00:37:33.517Z,3.86
2023-04-17T00:40:00.849Z,3.87
2023-04-17T00:42:28.139Z,3.91
2023-04-17T00:44:55.588Z,3.95
2023-04-17T00:47:23.037Z,3.87
2023-04-17T00:49:51.345Z,3.83
2023-04-17T00:52:32.256Z,3.73
2023-04-17T00:55:00.687Z,3.56
2023-04-17T00:57:28.231Z,3.55
2023-04-17T00:59:57.909Z,3.53
2023-04-17T01:02:26.519Z,3.46
2023-04-17T01:04:54.207Z,3.48
2023-04-17T01:07:21.574Z,3.53
2023-04-17T01:09:48.933Z,3.47
2023-04-17T01:12:24.490Z,3.47
2023-04-17T01:14:53.060Z,3.45
2023-04-17T01:17:21.746Z,3.55
2023-04-17T01:19:50.310Z,3.61
2023-04-17T01:22:17.849Z,3.58
2023-04-17T01:24:45.201Z,3.62
2023-04-17T01:27:16.275Z,3.62
2023-04-17T01:29:45.697Z,3.55
2023-04-17T01:32:31.528Z,3.47
2023-04-17T01:35:00.343Z,3.33
2023-04-17T01:37:28.069Z,3.30
2023-04-17T01:39:56.264Z,3.34
2023-04-17T01:42:23.863Z,3.38
2023-04-17T01:44:51.402Z,3.32
2023-04-17T01:47:19.012Z,3.39
2023-04-17T01:49:46.367Z,3.41
2023-04-17T01:52:13.710Z,3.41
2023-04-17T01:54:41.050Z,3.42
2023-04-17T01:57:08.408Z,3.42
2023-04-17T01:59:36.283Z,3.37
2023-04-17T02:02:03.807Z,3.47
2023-04-17T02:04:31.436Z,3.38
2023-04-17T02:09:43.734Z,3.34
2023-04-17T02:12:11.285Z,3.36
2023-04-17T02:14:38.582Z,3.40
2023-04-17T02:17:06.172Z,3.41
2023-04-17T02:19:33.537Z,3.42
2023-04-17T02:22:03.334Z,3.34
2023-04-17T02:24:31.731Z,3.40
2023-04-17T02:27:19.522Z,3.50
2023-04-17T02:29:46.788Z,3.65
2023-04-17T02:32:16.820Z,3.76
2023-04-17T02:34:44.685Z,3.82
2023-04-17T02:37:14.117Z,3.92
2023-04-17T02:40:00.058Z,4.00
2023-04-17T02:42:27.477Z,4.00
2023-04-17T02:44:54.795Z,4.08
2023-04-17T02:47:23.045Z,4.15
2023-04-17T02:49:51.319Z,4.22
2023-04-17T02:52:19.065Z,4.24
2023-04-17T02:54:46.563Z,4.21
2023-04-17T02:57:14.179Z,4.38
2023-04-17T02:59:41.493Z,4.39
2023-04-17T03:02:08.886Z,4.51
2023-04-17T03:04:39.073Z,4.57
2023-04-17T03:07:07.184Z,4.62
2023-04-17T03:09:35.072Z,4.79
2023-04-17T03:12:04.932Z,4.77
2023-04-17T03:14:32.228Z,4.83
2023-04-17T03:16:59.885Z,4.94
2023-04-17T03:19:27.228Z,5.01
2023-04-17T03:21:54.431Z,5.12
2023-04-17T03:24:21.812Z,5.17
2023-04-17T03:26:49.245Z,5.24
2023-04-17T03:29:19.560Z,5.31
2023-04-17T03:31:46.899Z,5.39
2023-04-17T03:34:14.589Z,5.50
2023-04-17T03:36:42.396Z,5.60
2023-04-17T03:39:10.402Z,5.72
2023-04-17T03:41:38.958Z,5.81
2023-04-17T03:44:07.354Z,5.92
2023-04-17T03:46:34.941Z,6.02
2023-04-17T03:49:02.253Z,6.10
2023-04-17T03:51:29.988Z,6.19
2023-04-17T03:54:02.581Z,6.30
2023-04-17T03:56:30.854Z,6.42
2023-04-17T03:58:59.484Z,6.52
2023-04-17T04:01:30.308Z,6.61
2023-04-17T04:04:33.453Z,6.77
2023-04-17T04:07:07.667Z,6.85
2023-04-17T04:09:35.875Z,6.97
2023-04-17T04:12:05.379Z,7.09
2023-04-17T04:14:41.648Z,7.21
2023-04-17T04:17:10.083Z,7.32
2023-04-17T04:19:38.888Z,7.41
2023-04-17T04:22:06.867Z,7.55
2023-04-17T04:24:44.697Z,7.60
2023-04-17T04:27:18.381Z,7.77
2023-04-17T04:29:49.113Z,7.87
2023-04-17T04:32:19.823Z,7.95
2023-04-17T04:34:51.089Z,8.12
2023-04-17T04:37:22.113Z,8.24
2023-04-17T04:39:54.287Z,8.33
2023-04-17T04:42:24.056Z,8.41
2023-04-17T04:45:26.764Z,8.48
2023-04-17T04:47:56.200Z,8.56
2023-04-17T04:50:25.547Z,8.65
2023-04-17T04:52:55.824Z,8.72
2023-04-17T04:55:48.811Z,8.87
2023-04-17T04:58:20.201Z,8.98
2023-04-17T05:00:51.772Z,9.05
2023-04-17T05:03:28.874Z,9.14
2023-04-17T05:05:59.754Z,9.27
2023-04-17T05:08:33.940Z,9.34
2023-04-17T05:11:10.582Z,9.39
2023-04-17T05:13:41.484Z,9.45
2023-04-17T05:16:15.235Z,9.53
2023-04-17T05:18:44.889Z,9.61
2023-04-17T05:21:23.276Z,9.69
2023-04-17T05:23:54.245Z,9.73
2023-04-17T05:26:25.238Z,9.80
2023-04-17T05:28:55.230Z,9.91
2023-04-17T05:31:31.670Z,10.01
2023-04-17T05:34:01.240Z,10.11
2023-04-17T05:36:32.427Z,10.18
2023-04-17T05:39:03.555Z,10.22
2023-04-17T05:41:32.304Z,10.27
2023-04-17T05:44:00.016Z,10.37
2023-04-17T05:46:32.242Z,10.45
2023-04-17T05:49:00.252Z,10.53
2023-04-17T05:51:31.273Z,10.62
2023-04-17T05:54:03.736Z,10.68
2023-04-17T05:56:32.834Z,10.80
2023-04-17T05:59:03.919Z,10.81
2023-04-17T06:01:40.668Z,10.90
2023-04-17T06:04:10.981Z,11.01
2023-04-17T06:06:44.401Z,11.10
2023-04-17T06:09:16.538Z,11.15
2023-04-17T06:11:47.042Z,11.25
2023-04-17T06:14:17.342Z,11.32
2023-04-17T06:16:45.803Z,11.32
2023-04-17T06:19:17.236Z,11.32
2023-04-17T06:21:46.569Z,11.36
2023-04-17T06:24:14.300Z,11.53
2023-04-17T06:26:46.483Z,11.58
2023-04-17T06:29:17.327Z,11.72
2023-04-17T06:31:46.956Z,11.77
2023-04-17T06:34:18.080Z,11.85
2023-04-17T06:36:55.935Z,11.87
2023-04-17T06:39:26.069Z,11.88
2023-04-17T06:41:56.478Z,12.01
2023-04-17T06:44:29.080Z,12.11
2023-04-17T06:47:02.773Z,12.10
2023-04-17T06:49:46.697Z,12.17
2023-04-17T06:52:15.180Z,12.26
2023-04-17T06:55:15.008Z,12.29
2023-04-17T06:57:42.826Z,12.26
2023-04-17T07:00:13.416Z,12.39
2023-04-17T07:02:44.075Z,12.44
2023-04-17T07:05:14.212Z,12.45
2023-04-17T07:07:43.640Z,12.52
2023-04-17T07:10:13.987Z,12.61
2023-04-17T07:12:44.381Z,12.63
2023-04-17T07:15:12.008Z,12.76
2023-04-17T07:17:39.496Z,12.72
2023-04-17T07:20:08.024Z,12.81
2023-04-17T07:22:35.517Z,12.87
2023-04-17T07:25:03.254Z,12.87
2023-04-17T07:27:31.463Z,12.97
2023-04-17T07:30:05.224Z,13.08
2023-04-17T07:32:33.417Z,13.21
2023-04-17T07:35:01.530Z,13.28
2023-04-17T07:37:30.954Z,13.26
2023-04-17T07:39:58.606Z,13.38
2023-04-17T07:42:29.494Z,13.45
2023-04-17T07:44:57.974Z,13.55
2023-04-17T07:47:25.467Z,13.55
2023-04-17T07:49:53.151Z,13.58
2023-04-17T07:52:26.438Z,13.51
2023-04-17T07:55:00.187Z,13.49
2023-04-17T07:57:32.377Z,13.49
2023-04-17T08:00:09.186Z,13.57
2023-04-17T08:02:47.259Z,13.62
2023-04-17T08:05:29.945Z,13.76
2023-04-17T08:08:05.395Z,13.74
2023-04-17T08:10:35.640Z,13.81
2023-04-17T08:13:04.256Z,13.93
2023-04-17T08:15:39.071Z,14.02
2023-04-17T08:18:12.557Z,14.00
2023-04-17T08:20:41.431Z,14.12
2023-04-17T08:23:08.770Z,14.12
2023-04-17T08:25:40.248Z,14.10
2023-04-17T08:28:24.432Z,14.06
2023-04-17T08:30:52.222Z,14.10
2023-04-17T08:33:20.696Z,14.21
2023-04-17T08:35:49.638Z,14.19
2023-04-17T08:38:17.302Z,14.07
2023-04-17T08:40:50.472Z,14.19
2023-04-17T08:43:25.017Z,14.26
2023-04-17T08:45:58.137Z,14.36
2023-04-17T08:48:27.469Z,14.50
2023-04-17T08:51:01.766Z,14.57
2023-04-17T08:53:30.736Z,14.55
2023-04-17T08:56:13.779Z,14.38
2023-04-17T08:58:45.610Z,14.32
2023-04-17T09:01:17.680Z,14.28
2023-04-17T09:03:49.250Z,14.35
2023-04-17T09:06:17.997Z,14.38
2023-04-17T09:09:02.498Z,14.41
2023-04-17T09:11:31.682Z,14.45
2023-04-17T09:13:59.793Z,14.63
2023-04-17T09:16:29.578Z,14.65
2023-04-17T09:19:07.266Z,14.81
2023-04-17T09:21:34.558Z,14.74
2023-04-17T09:24:02.352Z,14.70
2023-04-17T09:26:33.727Z,14.61
2023-04-17T09:29:09.644Z,14.70
2023-04-17T09:31:43.837Z,14.64
2023-04-17T09:34:15.640Z,14.77
2023-04-17T09:36:44.388Z,14.82
2023-04-17T09:39:27.282Z,14.86
2023-04-17T09:42:08.365Z,14.87
2023-04-17T09:44:55.336Z,14.89
2023-04-17T09:47:23.431Z,14.88
2023-04-17T09:49:59.632Z,14.87
2023-04-17T09:52:27.715Z,14.97
2023-04-17T09:54:55.574Z,15.02
2023-04-17T09:57:24.406Z,15.15
2023-04-17T09:59:54.600Z,15.15
2023-04-17T10:02:26.157Z,15.06
2023-04-17T10:04:54.887Z,14.96
2023-04-17T10:07:22.270Z,15.05
2023-04-17T10:09:51.728Z,15.05
2023-04-17T10:12:21.568Z,15.18
2023-04-17T10:14:53.460Z,15.20
2023-04-17T10:17:35.490Z,15.21
2023-04-17T10:20:19.068Z,15.27
2023-04-17T10:22:54.894Z,15.29
2023-04-17T10:25:27.187Z,15.28
2023-04-17T10:28:05.852Z,15.24
2023-04-17T10:30:53.924Z,15.30
2023-04-17T10:33:55.832Z,15.45
2023-04-17T10:36:40.727Z,15.56
2023-04-17T10:39:16.169Z,15.43
2023-04-17T10:42:04.464Z,15.38
2023-04-17T10:44:41.954Z,15.34
2023-04-17T10:47:16.233Z,15.41
2023-04-17T10:49:51.139Z,15.46
2023-04-17T10:52:42.846Z,15.48
2023-04-17T10:55:10.583Z,15.45
2023-04-17T10:57:53.327Z,15.44
2023-04-17T11:00:30.692Z,15.47
2023-04-17T11:03:01.148Z,15.57
2023-04-17T11:05:29.458Z,15.53
2023-04-17T11:07:58.526Z,15.42
2023-04-17T11:10:26.794Z,15.31
2023-04-17T11:12:56.657Z,15.41
2023-04-17T11:15:28.903Z,15.58
2023-04-17T11:17:58.235Z,15.65
2023-04-17T11:20:30.453Z,15.60
2023-04-17T11:23:03.046Z,15.55
2023-04-17T11:25:32.331Z,15.57
2023-04-17T11:28:05.739Z,15.61
2023-04-17T11:30:36.244Z,15.62
2023-04-17T11:33:08.497Z,15.66
2023-04-17T11:35:37.697Z,15.62
2023-04-17T11:38:09.297Z,15.68
2023-04-17T11:40:36.790Z,15.73
2023-04-17T11:43:08.660Z,15.61
2023-04-17T11:45:38.237Z,15.60
2023-04-17T11:48:08.766Z,15.57
2023-04-17T11:50:36.589Z,15.61
2023-04-17T11:53:06.386Z,15.64
2023-04-17T11:55:36.214Z,15.68
2023-04-17T11:58:06.843Z,15.68
2023-04-17T12:00:35.718Z,15.72
2023-04-17T12:03:35.354Z,15.72
2023-04-17T12:06:04.944Z,15.78
2023-04-17T12:08:43.394Z,15.77
2023-04-17T12:11:26.164Z,15.82
2023-04-17T12:13:54.562Z,15.83
2023-04-17T12:16:25.064Z,15.89
2023-04-17T12:18:53.499Z,15.97
2023-04-17T12:21:21.618Z,15.94
2023-04-17T12:23:49.366Z,15.96
2023-04-17T12:26:17.433Z,16.00
2023-04-17T12:28:46.254Z,16.06
2023-04-17T12:31:14.189Z,16.09
2023-04-17T12:33:41.902Z,16.08
2023-04-17T12:36:11.346Z,16.06
2023-04-17T12:38:58.145Z,15.98
2023-04-17T12:41:27.068Z,15.94
2023-04-17T12:43:55.062Z,15.94
2023-04-17T12:46:22.952Z,15.91
2023-04-17T12:48:51.008Z,15.94
2023-04-17T12:51:18.659Z,16.03
2023-04-17T12:53:47.958Z,16.06
2023-04-17T12:56:15.410Z,16.10
2023-04-17T12:58:42.661Z,16.02
2023-04-17T13:01:28.572Z,16.03
2023-04-17T13:03:56.166Z,16.09
2023-04-17T13:06:23.554Z,16.04
2023-04-17T13:08:53.253Z,16.02
2023-04-17T13:11:20.583Z,16.00
2023-04-17T13:13:47.866Z,15.87
2023-04-17T13:16:15.744Z,16.05
2023-04-17T13:18:42.930Z,15.98
2023-04-17T13:21:10.389Z,15.94
2023-04-17T13:23:37.778Z,15.88
2023-04-17T13:26:05.290Z,15.88
2023-04-17T13:28:51.197Z,15.95
2023-04-17T13:31:18.719Z,15.96
2023-04-17T13:33:46.012Z,15.97
2023-04-17T13:36:13.373Z,16.00
2023-04-17T13:38:40.725Z,15.98
2023-04-17T13:41:07.950Z,15.95
2023-04-17T13:43:35.369Z,16.04
2023-04-17T13:46:02.792Z,16.05
2023-04-17T13:48:30.175Z,16.03
2023-04-17T13:50:57.604Z,15.97
2023-04-17T13:53:25.052Z,15.93
2023-04-17T13:55:52.510Z,15.96
2023-04-17T13:58:20.052Z,15.86
2023-04-17T14:00:47.401Z,15.86
2023-04-17T14:03:14.940Z,15.87
2023-04-17T14:05:42.361Z,15.89
2023-04-17T14:08:10.094Z,15.95
2023-04-17T14:10:37.189Z,15.85
2023-04-17T14:13:04.301Z,15.83
2023-04-17T14:15:32.485Z,15.87
2023-04-17T14:18:00.112Z,15.79
2023-04-17T14:20:27.440Z,15.80
2023-04-17T14:22:54.843Z,15.85
2023-04-17T14:25:22.682Z,15.84
2023-04-17T14:27:50.153Z,15.89
2023-04-17T14:30:17.485Z,15.73
2023-04-17T14:32:44.900Z,15.71
2023-04-17T14:35:13.608Z,15.70
2023-04-17T14:37:42.184Z,15.68
2023-04-17T14:40:09.887Z,15.65
2023-04-17T14:42:47.476Z,15.52
2023-04-17T14:45:20.813Z,15.54
2023-04-17T14:47:48.198Z,15.47
2023-04-17T14:50:15.537Z,15.43
2023-04-17T14:52:42.816Z,15.41
2023-04-17T14:55:10.909Z,15.44
2023-04-17T14:57:38.298Z,15.43
2023-04-17T15:00:07.371Z,15.34
2023-04-17T15:02:38.936Z,15.37
2023-04-17T15:05:07.580Z,15.33
2023-04-17T15:07:35.659Z,15.28
2023-04-17T15:10:03.138Z,15.27
2023-04-17T15:12:30.680Z,15.21
2023-04-17T15:14:58.007Z,15.17
2023-04-17T15:17:25.546Z,15.08
2023-04-17T15:19:55.062Z,14.90
2023-04-17T15:22:22.258Z,14.87
2023-04-17T15:24:49.491Z,14.78
2023-04-17T15:27:16.887Z,14.74
2023-04-17T15:29:46.178Z,14.66
2023-04-17T15:32:13.841Z,14.59
2023-04-17T15:34:41.500Z,14.54
2023-04-17T15:37:10.847Z,14.47
2023-04-17T15:39:39.451Z,14.37
2023-04-17T15:42:11.342Z,14.27
2023-04-17T15:44:39.012Z,14.21
2023-04-17T15:47:07.009Z,14.11
2023-04-17T15:49:34.484Z,14.06
2023-04-17T15:52:02.077Z,13.95
2023-04-17T15:54:29.375Z,13.91
2023-04-17T15:56:57.278Z,13.84
2023-04-17T15:59:24.529Z,13.75
2023-04-17T16:01:53.363Z,13.69
2023-04-17T16:04:21.011Z,13.60
2023-04-17T16:06:48.412Z,13.55
2023-04-17T16:09:19.791Z,13.44
2023-04-17T16:11:48.772Z,13.42
2023-04-17T16:14:16.311Z,13.32
2023-04-17T16:16:43.699Z,13.20
2023-04-17T16:19:11.358Z,13.10
2023-04-17T16:21:38.811Z,13.04
2023-04-17T16:24:06.245Z,12.93
2023-04-17T16:26:33.681Z,12.81
2023-04-17T16:29:01.017Z,12.65
2023-04-17T16:31:28.530Z,12.49
2023-04-17T16:33:56.280Z,12.35
2023-04-17T16:36:23.714Z,12.19
2023-04-17T16:38:51.071Z,12.19
2023-04-17T16:41:18.945Z,12.18
2023-04-17T16:43:46.561Z,12.16
2023-04-17T16:46:23.817Z,12.18
2023-04-17T16:48:56.346Z,12.19
2023-04-17T16:51:27.241Z,12.15
2023-04-17T16:53:54.543Z,12.23
2023-04-17T16:56:21.817Z,12.26
2023-04-17T16:58:49.408Z,12.18
2023-04-17T17:01:16.865Z,12.10
2023-04-17T17:03:45.415Z,12.09
2023-04-17T17:06:12.989Z,12.10
2023-04-17T17:08:42.133Z,12.11
2023-04-17T17:11:09.415Z,12.10
2023-04-17T17:13:36.675Z,12.10
2023-04-17T17:16:04.017Z,12.10
2023-04-17T17:18:31.392Z,12.13
2023-04-17T17:21:00.343Z,12.14
2023-04-17T17:23:27.809Z,12.11
2023-04-17T17:25:55.105Z,12.11
2023-04-17T17:28:22.552Z,12.06
2023-04-17T17:30:49.881Z,12.00
2023-04-17T17:33:36.852Z,11.99
2023-04-17T17:36:04.407Z,11.86
2023-04-17T17:38:32.885Z,11.83
2023-04-17T17:41:00.645Z,11.79
2023-04-17T17:43:28.732Z,11.75
2023-04-17T17:45:56.051Z,11.74
2023-04-17T17:48:23.224Z,11.71
2023-04-17T17:50:54.685Z,11.69
2023-04-17T17:53:26.236Z,11.57
2023-04-17T17:55:56.363Z,11.55
2023-04-17T17:58:42.192Z,11.49
2023-04-17T18:01:09.587Z,11.39
2023-04-17T18:03:37.029Z,11.34
2023-04-17T18:06:04.449Z,11.32
2023-04-17T18:08:31.780Z,11.23
2023-04-17T18:10:59.118Z,11.16
2023-04-17T18:13:26.390Z,11.11
2023-04-17T18:15:53.691Z,11.00
2023-04-17T18:18:20.989Z,11.04
2023-04-17T18:20:48.342Z,10.93
2023-04-17T18:23:15.730Z,10.90
2023-04-17T18:25:43.085Z,10.91
2023-04-17T18:28:10.616Z,10.90
2023-04-17T18:30:37.855Z,10.84
2023-04-17T18:33:05.704Z,10.76
2023-04-17T18:35:51.742Z,10.63
2023-04-17T18:38:19.097Z,10.57
2023-04-17T18:40:46.409Z,10.56
2023-04-17T18:43:13.712Z,10.44
2023-04-17T18:45:40.938Z,10.45
2023-04-17T18:48:09.134Z,10.46
2023-04-17T18:50:38.698Z,10.40
2023-04-17T18:53:06.072Z,10.34
2023-04-17T18:55:33.554Z,10.34
2023-04-17T18:58:01.198Z,10.27
2023-04-17T19:00:28.957Z,10.20
2023-04-17T19:02:56.368Z,10.26
2023-04-17T19:05:24.408Z,10.28
2023-04-17T19:07:52.216Z,10.24
2023-04-17T19:10:19.654Z,10.24
2023-04-17T19:12:47.170Z,10.32
2023-04-17T19:15:14.566Z,10.33
2023-04-17T19:17:41.938Z,10.33
2023-04-17T19:20:10.086Z,10.32
2023-04-17T19:22:37.297Z,10.28
2023-04-17T19:25:04.939Z,10.29
2023-04-17T19:27:32.164Z,10.32
2023-04-17T19:29:59.554Z,10.23
2023-04-17T19:32:26.982Z,10.17
2023-04-17T19:34:54.353Z,10.17
2023-04-17T19:37:21.709Z,10.10
2023-04-17T19:39:49.082Z,10.08
2023-04-17T19:42:16.424Z,9.99
2023-04-17T19:44:43.703Z,9.92
2023-04-17T19:47:11.676Z,9.86
2023-04-17T19:49:39.066Z,9.88
2023-04-17T19:52:06.412Z,9.86
2023-04-17T19:54:33.696Z,9.75
2023-04-17T19:57:00.924Z,9.62
2023-04-17T19:59:28.396Z,9.43
2023-04-17T20:01:55.954Z,9.37
2023-04-17T20:04:23.557Z,9.31
2023-04-17T20:06:50.925Z,9.27
2023-04-17T20:09:18.483Z,9.21
2023-04-17T20:11:45.957Z,9.14
2023-04-17T20:14:15.054Z,9.19
2023-04-17T20:16:44.641Z,9.12
2023-04-17T20:19:12.586Z,9.05
2023-04-17T20:21:40.020Z,8.92
2023-04-17T20:24:07.479Z,8.92
2023-04-17T20:26:37.120Z,8.75
2023-04-17T20:29:04.952Z,8.85
2023-04-17T20:31:36.504Z,8.82
2023-04-17T20:34:04.043Z,8.74
2023-04-17T20:36:31.642Z,8.70
2023-04-17T20:38:58.952Z,8.78
2023-04-17T20:41:26.361Z,8.79
2023-04-17T20:44:00.733Z,8.84
2023-04-17T20:46:28.916Z,8.74
2023-04-17T20:48:56.508Z,8.72
2023-04-17T20:51:27.609Z,8.69
2023-04-17T20:53:55.332Z,8.70
2023-04-17T20:56:23.298Z,8.58
2023-04-17T20:58:50.640Z,8.49
2023-04-17T21:01:18.122Z,8.47
2023-04-17T21:03:45.701Z,8.56
2023-04-17T21:06:13.140Z,8.63
2023-04-17T21:08:40.474Z,8.55
2023-04-17T21:11:07.888Z,8.57
2023-04-17T21:13:36.513Z,8.49
2023-04-17T21:16:22.448Z,8.27
2023-04-17T21:18:49.877Z,8.35
2023-04-17T21:21:17.341Z,8.38
2023-04-17T21:23:44.600Z,8.23
2023-04-17T21:26:11.964Z,8.22
2023-04-17T21:28:39.384Z,8.17
2023-04-17T21:31:10.427Z,8.14
2023-04-17T21:33:38.840Z,8.10
2023-04-17T21:36:06.737Z,8.14
2023-04-17T21:38:33.991Z,8.18
2023-04-17T21:41:01.307Z,8.05
2023-04-17T21:43:28.564Z,7.98
2023-04-17T21:45:57.338Z,8.01
2023-04-17T21:48:24.586Z,7.98
2023-04-17T21:50:52.042Z,7.95
2023-04-17T21:53:19.316Z,7.89
2023-04-17T21:55:46.529Z,7.82
2023-04-17T21:58:13.796Z,7.78
2023-04-17T22:00:41.197Z,7.75
2023-04-17T22:03:08.567Z,7.86
2023-04-17T22:05:35.878Z,7.85
2023-04-17T22:08:03.191Z,7.89
2023-04-17T22:10:30.952Z,7.91
2023-04-17T22:12:58.378Z,7.86
2023-04-17T22:15:25.820Z,7.84
2023-04-17T22:17:53.213Z,7.97
2023-04-17T22:20:21.047Z,7.98
2023-04-17T22:22:48.227Z,7.86
2023-04-17T22:25:15.492Z,7.73
2023-04-17T22:27:42.944Z,7.78
2023-04-17T22:30:10.806Z,7.67
2023-04-17T22:32:38.323Z,7.57
2023-04-17T22:35:06.186Z,7.71
2023-04-17T22:37:33.763Z,7.79
2023-04-17T22:40:01.015Z,7.74
2023-04-17T22:42:30.182Z,7.78
2023-04-17T22:44:57.503Z,7.77
2023-04-17T22:47:24.804Z,7.73
2023-04-17T22:49:52.792Z,7.64
2023-04-17T22:52:20.655Z,7.57
2023-04-17T22:54:47.999Z,7.64
2023-04-17T22:57:15.337Z,7.67
2023-04-17T22:59:42.726Z,7.60
2023-04-17T23:02:10.177Z,7.47
2023-04-17T23:04:37.638Z,7.41
2023-04-17T23:07:05.010Z,7.37
2023-04-17T23:09:32.294Z,7.29
2023-04-17T23:11:59.522Z,7.37
2023-04-17T23:14:28.736Z,7.27
2023-04-17T23:16:56.055Z,7.26
2023-04-17T23:19:23.648Z,7.37
2023-04-17T23:21:50.993Z,7.31
2023-04-17T23:24:18.250Z,7.24
2023-04-17T23:26:45.585Z,7.14
2023-04-17T23:29:13.740Z,7.09
2023-04-17T23:31:42.975Z,7.03
2023-04-17T23:34:10.387Z,7.04
2023-04-17T23:36:37.756Z,6.92
2023-04-17T23:39:06.032Z,6.97
2023-04-17T23:41:35.285Z,6.86
2023-04-17T23:44:04.102Z,6.82
2023-04-17T23:46:31.511Z,6.71
2023-04-17T23:48:58.893Z,6.69
2023-04-17T23:51:26.495Z,6.63
2023-04-17T23:53:53.973Z,6.63
2023-04-17T23:56:22.872Z,6.54
2023-04-17T23:58:50.213Z,6.53
